Time;durP1;ratioP1;P1;durP2;ratioP2;P2;SDS_P1;SDS_P2;PMS_P1;PMS_P2;Temp;Humidity;BMP_temperature;BMP_pressure;BME280_temperature;BME280_humidity;BME280_pressure;Samples;Min_cycle;Max_cycle;Signal;HPM_P1;HPM_P2
2022/04/22 00:00:09;;;;;;;0.10;0.10;;;;;;;;;;5074088;28;20043;-76
2022/04/22 00:02:36;;;;;;;0.10;0.10;;;;;;;;;;5073903;28;20046;-75
2022/04/22 00:05:02;;;;;;;0.10;0.10;;;;;;;;;;5074396;28;20029;-75
2022/04/22 00:07:28;;;;;;;0.10;0.10;;;;;;;;;;5072994;28;20055;-75
2022/04/22 00:09:55;;;;;;;0.10;0.10;;;;;;;;;;5072388;28;20028;-76
2022/04/22 00:12:21;;;;;;;0.10;0.10;;;;;;;;;;5072669;28;20052;-76
2022/04/22 00:14:48;;;;;;;0.10;0.10;;;;;;;;;;5073653;28;20067;-76
2022/04/22 00:17:14;;;;;;;0.10;0.10;;;;;;;;;;5072515;28;20021;-76
2022/04/22 00:19:40;;;;;;;0.10;0.10;;;;;;;;;;5073463;28;20496;-75
2022/04/22 00:22:06;;;;;;;0.10;0.10;;;;;;;;;;5073830;28;20059;-76
2022/04/22 00:24:32;;;;;;;0.10;0.10;;;;;;;;;;5072788;28;20029;-75
2022/04/22 00:26:58;;;;;;;0.10;0.10;;;;;;;;;;5074003;28;20029;-75
2022/04/22 00:29:24;;;;;;;0.10;0.10;;;;;;;;;;5073594;28;20027;-75
2022/04/22 00:31:50;;;;;;;0.10;0.10;;;;;;;;;;5073368;28;20063;-76
2022/04/22 00:34:16;;;;;;;0.10;0.10;;;;;;;;;;5073618;28;20099;-75
2022/04/22 00:36:42;;;;;;;0.10;0.10;;;;;;;;;;5071971;28;20181;-75
2022/04/22 00:39:08;;;;;;;0.10;0.10;;;;;;;;;;5072062;28;20559;-76
2022/04/22 00:41:34;;;;;;;0.10;0.10;;;;;;;;;;5073212;28;20024;-76
2022/04/22 00:44:00;;;;;;;0.20;0.20;;;;;;;;;;5073590;28;20021;-76
2022/04/22 00:46:26;;;;;;;0.20;0.20;;;;;;;;;;5071994;28;20444;-76
2022/04/22 00:48:52;;;;;;;0.10;0.10;;;;;;;;;;5072883;28;20036;-76
2022/04/22 00:51:21;;;;;;;0.10;0.10;;;;;;;;;;5073279;28;20017;-76
2022/04/22 00:53:47;;;;;;;0.10;0.10;;;;;;;;;;5071702;28;20033;-76
2022/04/22 00:56:13;;;;;;;0.13;0.13;;;;;;;;;;5073175;28;20028;-76
2022/04/22 00:58:40;;;;;;;0.10;0.10;;;;;;;;;;5072394;28;20400;-76
2022/04/22 01:01:07;;;;;;;0.10;0.10;;;;;;;;;;5073143;28;20042;-76
2022/04/22 01:03:33;;;;;;;0.10;0.10;;;;;;;;;;5071740;28;20463;-75
2022/04/22 01:11:35;;;;;;;0.10;0.10;;;;;;;;;;5073369;28;20043;-76
2022/04/22 01:14:01;;;;;;;0.10;0.10;;;;;;;;;;5071672;28;20028;-76
2022/04/22 01:16:28;;;;;;;0.10;0.10;;;;;;;;;;5072838;28;20033;-75
2022/04/22 01:18:54;;;;;;;0.10;0.10;;;;;;;;;;5071127;28;20028;-76
2022/04/22 01:21:20;;;;;;;0.10;0.10;;;;;;;;;;5071390;28;20078;-76
2022/04/22 01:23:46;;;;;;;0.10;0.10;;;;;;;;;;5072245;28;20099;-75
2022/04/22 01:26:13;;;;;;;0.10;0.10;;;;;;;;;;5071327;28;20027;-75
2022/04/22 01:28:39;;;;;;;0.10;0.10;;;;;;;;;;5070908;28;20033;-76
2022/04/22 01:31:05;;;;;;;0.17;0.17;;;;;;;;;;5072505;28;20025;-75
2022/04/22 01:33:31;;;;;;;0.10;0.10;;;;;;;;;;5071475;28;20046;-76
2022/04/22 01:35:58;;;;;;;0.10;0.10;;;;;;;;;;5072240;28;20024;-76
2022/04/22 01:38:24;;;;;;;0.10;0.10;;;;;;;;;;5072226;28;20052;-76
2022/04/22 01:40:50;;;;;;;0.10;0.10;;;;;;;;;;5072034;28;20066;-75
2022/04/22 01:43:17;;;;;;;0.10;0.10;;;;;;;;;;5070907;28;20021;-75
2022/04/22 01:45:43;;;;;;;0.10;0.10;;;;;;;;;;5071938;28;20036;-76
2022/04/22 01:48:09;;;;;;;0.10;0.10;;;;;;;;;;5072061;28;20028;-76
2022/04/22 01:50:36;;;;;;;0.10;0.10;;;;;;;;;;5071748;28;20025;-76
2022/04/22 01:53:03;;;;;;;0.10;0.10;;;;;;;;;;5071072;28;20074;-76
2022/04/22 01:55:29;;;;;;;0.10;0.10;;;;;;;;;;5072178;28;20425;-76
2022/04/22 01:57:55;;;;;;;0.20;0.20;;;;;;;;;;5071677;28;20033;-76
2022/04/22 02:00:21;;;;;;;0.10;0.10;;;;;;;;;;5070499;28;20036;-76
2022/04/22 02:02:47;;;;;;;0.20;0.20;;;;;;;;;;5071511;28;20024;-76
2022/04/22 02:05:13;;;;;;;0.10;0.10;;;;;;;;;;5071707;28;20032;-76
2022/04/22 02:07:41;;;;;;;0.10;0.10;;;;;;;;;;5071576;28;20024;-76
2022/04/22 02:10:08;;;;;;;0.15;0.15;;;;;;;;;;5069651;28;20120;-76
2022/04/22 02:12:34;;;;;;;0.10;0.10;;;;;;;;;;5070063;28;20480;-75
2022/04/22 02:15:00;;;;;;;0.10;0.10;;;;;;;;;;5071930;28;20024;-76
2022/04/22 02:17:26;;;;;;;0.10;0.10;;;;;;;;;;5071614;28;20028;-76
2022/04/22 02:19:52;;;;;;;0.10;0.10;;;;;;;;;;5071134;28;20039;-76
2022/04/22 02:22:18;;;;;;;0.10;0.10;;;;;;;;;;5071479;28;20020;-76
2022/04/22 02:24:44;;;;;;;0.10;0.10;;;;;;;;;;5071250;28;20418;-76
2022/04/22 02:29:55;;;;;;;0.10;0.10;;;;;;;;;;5071416;28;20557;-76
2022/04/22 02:32:21;;;;;;;0.10;0.10;;;;;;;;;;5069988;28;20021;-76
2022/04/22 02:34:47;;;;;;;0.08;0.08;;;;;;;;;;5071115;28;20077;-76
2022/04/22 02:37:13;;;;;;;0.10;0.10;;;;;;;;;;5071256;28;20024;-76
2022/04/22 02:39:39;;;;;;;0.20;0.20;;;;;;;;;;5070950;28;20037;-75
2022/04/22 02:47:34;;;;;;;0.10;0.10;;;;;;;;;;5070691;28;20047;-76
2022/04/22 02:50:00;;;;;;;0.10;0.10;;;;;;;;;;5071558;28;20020;-75
2022/04/22 02:52:26;;;;;;;0.10;0.10;;;;;;;;;;5071179;28;20025;-75
2022/04/22 02:54:54;;;;;;;0.10;0.10;;;;;;;;;;5069594;28;20691;-76
2022/04/22 02:57:20;;;;;;;0.10;0.10;;;;;;;;;;5071065;28;20024;-75
2022/04/22 02:59:46;;;;;;;0.10;0.10;;;;;;;;;;5070715;28;20044;-76
2022/04/22 03:02:12;;;;;;;0.10;0.10;;;;;;;;;;5070826;28;20464;-76
2022/04/22 03:04:38;;;;;;;0.10;0.10;;;;;;;;;;5070569;28;20063;-76
2022/04/22 03:07:05;;;;;;;0.10;0.10;;;;;;;;;;5071020;28;20020;-76
2022/04/22 03:09:31;;;;;;;0.10;0.10;;;;;;;;;;5071355;28;20079;-75
2022/04/22 03:11:57;;;;;;;0.10;0.10;;;;;;;;;;5070666;28;20099;-76
2022/04/22 03:14:23;;;;;;;0.10;0.10;;;;;;;;;;5070907;28;20529;-76
2022/04/22 03:16:49;;;;;;;0.13;0.13;;;;;;;;;;5070726;28;20491;-76
2022/04/22 03:19:15;;;;;;;0.15;0.15;;;;;;;;;;5070847;28;20024;-76
2022/04/22 03:21:41;;;;;;;0.10;0.10;;;;;;;;;;5072420;28;20025;-76
2022/04/22 03:24:07;;;;;;;0.00;0.00;;;;;;;;;;5074955;28;20036;-76
2022/04/22 03:26:33;;;;;;;0.10;0.10;;;;;;;;;;5074554;28;20047;-76
2022/04/22 03:29:00;;;;;;;0.00;0.00;;;;;;;;;;5075106;28;20166;-76
2022/04/22 03:31:26;;;;;;;0.10;0.10;;;;;;;;;;5074816;28;20044;-76
2022/04/22 03:33:52;;;;;;;0.10;0.10;;;;;;;;;;5074614;28;20106;-76
2022/04/22 03:36:18;;;;;;;0.10;0.10;;;;;;;;;;5074752;28;20158;-76
2022/04/22 03:38:44;;;;;;;0.10;0.10;;;;;;;;;;5074227;28;20539;-76
2022/04/22 03:41:10;;;;;;;0.10;0.10;;;;;;;;;;5074489;28;20100;-76
2022/04/22 03:43:39;;;;;;;0.10;0.10;;;;;;;;;;5074271;28;20024;-76
2022/04/22 03:46:05;;;;;;;0.10;0.10;;;;;;;;;;5074578;28;20016;-76
2022/04/22 03:48:31;;;;;;;0.20;0.20;;;;;;;;;;5074530;28;20377;-76
2022/04/22 03:50:57;;;;;;;0.10;0.10;;;;;;;;;;5072817;28;20025;-76
2022/04/22 03:53:23;;;;;;;0.10;0.10;;;;;;;;;;5074356;28;20036;-76
2022/04/22 03:55:52;;;;;;;0.10;0.10;;;;;;;;;;5073951;28;20464;-76
2022/04/22 03:58:18;;;;;;;0.10;0.10;;;;;;;;;;5074253;28;20029;-75
2022/04/22 04:00:45;;;;;;;0.10;0.10;;;;;;;;;;5073977;28;20032;-75
2022/04/22 04:03:12;;;;;;;0.10;0.10;;;;;;;;;;5074146;28;20045;-75
2022/04/22 04:05:39;;;;;;;0.10;0.10;;;;;;;;;;5073825;28;20024;-76
2022/04/22 04:08:06;;;;;;;0.10;0.10;;;;;;;;;;5074083;28;20021;-75
2022/04/22 04:16:01;;;;;;;0.10;0.10;;;;;;;;;;5074240;28;20039;-75
2022/04/22 04:18:28;;;;;;;0.10;0.10;;;;;;;;;;5073784;28;20048;-76
2022/04/22 04:23:39;;;;;;;0.10;0.10;;;;;;;;;;5073697;28;20032;-76
2022/04/22 04:26:06;;;;;;;0.10;0.10;;;;;;;;;;5073589;28;20547;-75
2022/04/22 04:28:33;;;;;;;0.10;0.10;;;;;;;;;;5072626;28;20063;-76
2022/04/22 04:30:59;;;;;;;0.10;0.10;;;;;;;;;;5073913;28;20031;-76
2022/04/22 04:33:25;;;;;;;0.10;0.10;;;;;;;;;;5071440;28;20056;-76
2022/04/22 04:35:51;;;;;;;0.20;0.20;;;;;;;;;;5073356;28;20033;-76
2022/04/22 04:38:18;;;;;;;0.13;0.13;;;;;;;;;;5073503;28;20016;-76
2022/04/22 04:40:48;;;;;;;0.20;0.20;;;;;;;;;;5073194;28;20041;-75
2022/04/22 04:43:14;;;;;;;0.10;0.10;;;;;;;;;;5072131;28;20074;-75
2022/04/22 04:45:41;;;;;;;0.15;0.15;;;;;;;;;;5073044;28;20031;-76
2022/04/22 04:48:07;;;;;;;0.10;0.10;;;;;;;;;;5073201;28;20036;-76
2022/04/22 04:50:33;;;;;;;0.10;0.10;;;;;;;;;;5073181;28;20025;-75
2022/04/22 04:52:59;;;;;;;0.10;0.10;;;;;;;;;;5073639;28;20028;-76
2022/04/22 04:55:26;;;;;;;0.10;0.10;;;;;;;;;;5073083;28;20017;-76
2022/04/22 04:57:52;;;;;;;0.10;0.10;;;;;;;;;;5072863;28;20025;-76
2022/04/22 05:00:18;;;;;;;0.10;0.10;;;;;;;;;;5072774;28;20043;-76
2022/04/22 05:02:45;;;;;;;0.10;0.10;;;;;;;;;;5088849;28;20032;-75
2022/04/22 05:05:12;;;;;;;0.10;0.10;;;;;;;;;;5087628;28;20028;-76
2022/04/22 05:07:48;;;;;;;0.10;0.10;;;;;;;;;;5091939;28;20028;-76
2022/04/22 05:10:15;;;;;;;0.10;0.10;;;;;;;;;;5073004;28;20020;-75
2022/04/22 05:12:41;;;;;;;0.10;0.10;;;;;;;;;;5072700;28;20031;-75
2022/04/22 05:15:08;;;;;;;0.10;0.10;;;;;;;;;;5076146;28;20074;-76
2022/04/22 05:17:34;;;;;;;0.10;0.10;;;;;;;;;;5074946;28;20078;-75
2022/04/22 05:20:00;;;;;;;0.10;0.10;;;;;;;;;;5084975;28;20074;-75
2022/04/22 05:22:26;;;;;;;0.10;0.10;;;;;;;;;;5091987;28;20027;-75
2022/04/22 05:24:52;;;;;;;0.10;0.10;;;;;;;;;;5072198;28;20025;-75
2022/04/22 05:27:18;;;;;;;0.10;0.10;;;;;;;;;;5071336;28;20021;-75
2022/04/22 05:32:38;;;;;;;0.10;0.10;;;;;;;;;;5072974;28;20396;-76
2022/04/22 05:35:05;;;;;;;0.10;0.10;;;;;;;;;;5074665;28;20047;-75
2022/04/22 05:37:49;;;;;;;0.10;0.10;;;;;;;;;;5092719;28;20024;-76
2022/04/22 05:40:17;;;;;;;0.10;0.10;;;;;;;;;;5092392;28;20035;-76
2022/04/22 05:42:43;;;;;;;0.10;0.10;;;;;;;;;;5092177;28;20032;-76
2022/04/22 05:45:10;;;;;;;0.10;0.10;;;;;;;;;;5092436;28;20379;-76
2022/04/22 05:47:36;;;;;;;0.10;0.10;;;;;;;;;;5092026;28;20040;-75
2022/04/22 05:50:04;;;;;;;0.10;0.10;;;;;;;;;;5092210;28;20098;-76
2022/04/22 05:52:31;;;;;;;0.10;0.10;;;;;;;;;;5051101;28;20036;-76
2022/04/22 05:54:57;;;;;;;0.10;0.10;;;;;;;;;;5051799;28;20036;-76
2022/04/22 05:57:24;;;;;;;0.10;0.10;;;;;;;;;;5067343;28;20412;-76
2022/04/22 05:59:50;;;;;;;0.10;0.10;;;;;;;;;;5051742;28;20033;-76
2022/04/22 06:02:18;;;;;;;0.10;0.10;;;;;;;;;;5067127;28;20079;-77
2022/04/22 06:04:44;;;;;;;0.10;0.10;;;;;;;;;;5051663;28;20032;-76
2022/04/22 06:07:10;;;;;;;0.10;0.10;;;;;;;;;;5083610;28;20044;-76
2022/04/22 06:12:21;;;;;;;0.10;0.10;;;;;;;;;;5081811;28;20094;-76
2022/04/22 06:14:47;;;;;;;0.10;0.10;;;;;;;;;;5071167;28;20028;-77
2022/04/22 06:17:13;;;;;;;0.10;0.10;;;;;;;;;;5072474;28;20415;-76
2022/04/22 06:19:39;;;;;;;0.10;0.10;;;;;;;;;;5051252;28;20032;-76
2022/04/22 06:22:05;;;;;;;0.10;0.10;;;;;;;;;;5084670;28;20451;-76
2022/04/22 06:24:31;;;;;;;0.10;0.10;;;;;;;;;;5087384;28;20105;-76
2022/04/22 06:26:57;;;;;;;0.10;0.10;;;;;;;;;;5084271;28;20116;-76
2022/04/22 06:29:23;;;;;;;0.00;0.00;;;;;;;;;;5073644;28;20036;-76
2022/04/22 06:31:49;;;;;;;0.10;0.10;;;;;;;;;;5088068;28;20030;-76
2022/04/22 06:34:15;;;;;;;0.10;0.10;;;;;;;;;;5091544;28;20036;-76
2022/04/22 06:36:42;;;;;;;0.10;0.10;;;;;;;;;;5091307;28;20455;-76
2022/04/22 06:39:08;;;;;;;0.10;0.10;;;;;;;;;;5091346;28;20077;-76
2022/04/22 06:47:04;;;;;;;0.10;0.10;;;;;;;;;;5091164;28;20051;-76
2022/04/22 06:49:31;;;;;;;0.10;0.10;;;;;;;;;;5073264;28;20020;-76
2022/04/22 06:51:57;;;;;;;0.10;0.10;;;;;;;;;;5082152;28;20608;-76
2022/04/22 06:54:23;;;;;;;0.10;0.10;;;;;;;;;;5086996;28;20542;-76
2022/04/22 06:56:49;;;;;;;0.10;0.10;;;;;;;;;;5076310;28;20027;-76
2022/04/22 06:59:21;;;;;;;0.10;0.10;;;;;;;;;;5069603;28;20040;-77
2022/04/22 07:01:48;;;;;;;0.10;0.10;;;;;;;;;;5079183;28;20016;-77
2022/04/22 07:04:14;;;;;;;0.10;0.10;;;;;;;;;;5089535;28;20035;-76
2022/04/22 07:06:41;;;;;;;0.10;0.10;;;;;;;;;;5090692;28;20024;-76
2022/04/22 07:09:07;;;;;;;0.10;0.10;;;;;;;;;;5090911;28;20020;-77
2022/04/22 07:11:35;;;;;;;0.10;0.10;;;;;;;;;;5086078;28;20403;-76
2022/04/22 07:14:01;;;;;;;0.10;0.10;;;;;;;;;;5085098;28;20028;-76
2022/04/22 07:16:28;;;;;;;0.10;0.10;;;;;;;;;;5089894;28;20073;-76
2022/04/22 07:18:59;;;;;;;0.10;0.10;;;;;;;;;;5076180;28;20111;-75
2022/04/22 07:21:26;;;;;;;0.10;0.10;;;;;;;;;;5070475;28;20056;-75
2022/04/22 07:23:52;;;;;;;0.10;0.10;;;;;;;;;;5081250;28;20035;-76
2022/04/22 07:26:19;;;;;;;0.10;0.10;;;;;;;;;;5073959;28;20028;-76
2022/04/22 07:28:48;;;;;;;0.20;0.20;;;;;;;;;;5069210;28;20077;-76
2022/04/22 07:31:18;;;;;;;0.10;0.10;;;;;;;;;;5072046;28;20488;-75
2022/04/22 07:33:44;;;;;;;0.10;0.10;;;;;;;;;;5069167;28;20025;-75
2022/04/22 07:36:10;;;;;;;0.10;0.10;;;;;;;;;;5066083;28;20024;-77
2022/04/22 07:38:36;;;;;;;0.10;0.10;;;;;;;;;;5068914;28;20476;-76
2022/04/22 07:41:03;;;;;;;0.10;0.10;;;;;;;;;;5069661;28;20087;-77
2022/04/22 07:48:59;;;;;;;0.10;0.10;;;;;;;;;;5073236;28;20557;-76
2022/04/22 07:51:25;;;;;;;0.10;0.10;;;;;;;;;;5088029;28;20042;-76
2022/04/22 07:53:51;;;;;;;0.10;0.10;;;;;;;;;;5075573;28;20031;-77
2022/04/22 07:56:17;;;;;;;0.10;0.10;;;;;;;;;;5073427;28;20028;-77
2022/04/22 07:58:44;;;;;;;0.10;0.10;;;;;;;;;;5087458;28;20032;-76
2022/04/22 08:01:10;;;;;;;0.10;0.10;;;;;;;;;;5083659;28;20029;-77
2022/04/22 08:03:36;;;;;;;0.10;0.10;;;;;;;;;;5078649;28;20024;-76
2022/04/22 08:06:02;;;;;;;0.10;0.10;;;;;;;;;;5080629;28;20088;-77
2022/04/22 08:08:30;;;;;;;0.05;0.05;;;;;;;;;;5080014;28;20430;-76
2022/04/22 08:10:57;;;;;;;0.10;0.10;;;;;;;;;;5092160;28;20380;-77
2022/04/22 08:13:26;;;;;;;0.10;0.10;;;;;;;;;;5087224;28;20038;-77
2022/04/22 08:15:52;;;;;;;0.10;0.10;;;;;;;;;;5071333;28;20035;-76
2022/04/22 08:18:18;;;;;;;0.10;0.10;;;;;;;;;;5073644;28;20031;-78
2022/04/22 08:20:44;;;;;;;0.10;0.10;;;;;;;;;;5072354;28;20039;-81
2022/04/22 08:23:11;;;;;;;0.10;0.10;;;;;;;;;;5073869;28;20028;-76
2022/04/22 08:25:37;;;;;;;0.10;0.10;;;;;;;;;;5078898;28;20012;-77
2022/04/22 08:28:04;;;;;;;0.10;0.10;;;;;;;;;;5083548;28;20045;-76
2022/04/22 08:30:30;;;;;;;0.10;0.10;;;;;;;;;;5072735;28;20029;-77
2022/04/22 08:32:57;;;;;;;0.10;0.10;;;;;;;;;;5073915;28;20059;-76
2022/04/22 08:35:23;;;;;;;0.10;0.10;;;;;;;;;;5073691;28;20166;-76
2022/04/22 08:37:49;;;;;;;0.10;0.10;;;;;;;;;;5073338;28;20396;-75
2022/04/22 08:40:15;;;;;;;0.10;0.10;;;;;;;;;;5073520;28;20040;-76
2022/04/22 08:42:44;;;;;;;0.10;0.10;;;;;;;;;;5073234;28;20028;-76
2022/04/22 08:45:10;;;;;;;0.10;0.10;;;;;;;;;;5073806;28;20021;-76
2022/04/22 08:50:31;;;;;;;0.10;0.10;;;;;;;;;;5073536;28;20446;-76
2022/04/22 08:53:03;;;;;;;0.05;0.05;;;;;;;;;;5073291;28;20104;-76
2022/04/22 08:55:30;;;;;;;0.10;0.10;;;;;;;;;;5073628;28;20491;-77
2022/04/22 08:57:56;;;;;;;0.10;0.10;;;;;;;;;;5072906;28;20028;-77
2022/04/22 09:00:22;;;;;;;0.10;0.10;;;;;;;;;;5073124;28;20032;-77
2022/04/22 09:02:49;;;;;;;0.10;0.10;;;;;;;;;;5071822;28;20035;-76
2022/04/22 09:05:15;;;;;;;0.10;0.10;;;;;;;;;;5086635;28;20035;-77
2022/04/22 09:07:42;;;;;;;0.13;0.13;;;;;;;;;;5068015;28;20032;-77
2022/04/22 09:10:08;;;;;;;0.10;0.10;;;;;;;;;;5071375;28;20376;-76
2022/04/22 09:12:35;;;;;;;0.10;0.10;;;;;;;;;;5071359;28;20115;-77
2022/04/22 09:15:01;;;;;;;0.10;0.10;;;;;;;;;;5071961;28;20034;-77
2022/04/22 09:17:31;;;;;;;0.10;0.10;;;;;;;;;;5072662;28;20052;-77
2022/04/22 09:19:57;;;;;;;0.10;0.10;;;;;;;;;;5072385;28;20036;-76
2022/04/22 09:22:27;;;;;;;0.10;0.10;;;;;;;;;;5072354;28;20048;-76
2022/04/22 09:24:53;;;;;;;0.10;0.10;;;;;;;;;;5068876;28;20860;-76
2022/04/22 09:27:19;;;;;;;0.20;0.20;;;;;;;;;;5072491;28;20052;-76
2022/04/22 09:29:55;;;;;;;0.10;0.10;;;;;;;;;;5072363;28;20388;-77
2022/04/22 09:32:25;;;;;;;0.10;0.10;;;;;;;;;;5072572;28;20027;-76
2022/04/22 09:34:51;;;;;;;0.03;0.03;;;;;;;;;;5072658;28;20468;-77
2022/04/22 09:42:38;;;;;;;0.10;0.10;;;;;;;;;;5072104;28;20093;-76
2022/04/22 09:43:17;;;;;;;0.10;0.10;;;;;;;;;;5072214;28;20025;-76
2022/04/22 09:45:43;;;;;;;0.10;0.10;;;;;;;;;;5071982;28;20125;-77
2022/04/22 09:48:16;;;;;;;0.10;0.10;;;;;;;;;;5072225;28;20036;-77
2022/04/22 09:51:08;;;;;;;0.10;0.10;;;;;;;;;;5070653;28;20032;-77
2022/04/22 09:53:34;;;;;;;0.10;0.10;;;;;;;;;;5066054;28;20036;-77
2022/04/22 09:56:10;;;;;;;0.10;0.10;;;;;;;;;;5071105;28;20083;-77
2022/04/22 09:58:36;;;;;;;0.10;0.10;;;;;;;;;;5071856;28;20020;-77
2022/04/22 10:01:06;;;;;;;0.10;0.10;;;;;;;;;;5071891;28;20039;-77
2022/04/22 10:03:34;;;;;;;0.10;0.10;;;;;;;;;;5072194;28;20025;-76
2022/04/22 10:06:01;;;;;;;0.10;0.10;;;;;;;;;;5072309;28;20029;-75
2022/04/22 10:08:28;;;;;;;0.10;0.10;;;;;;;;;;5071800;28;20025;-76
2022/04/22 10:10:57;;;;;;;0.10;0.10;;;;;;;;;;5071605;28;20031;-76
2022/04/22 10:13:26;;;;;;;0.10;0.10;;;;;;;;;;5071812;28;20033;-77
2022/04/22 10:15:52;;;;;;;0.00;0.00;;;;;;;;;;5071525;28;20020;-77
2022/04/22 10:18:20;;;;;;;0.10;0.10;;;;;;;;;;5071710;28;20111;-77
2022/04/22 10:20:46;;;;;;;0.10;0.10;;;;;;;;;;5071381;28;20401;-77
2022/04/22 10:23:13;;;;;;;0.10;0.10;;;;;;;;;;5071729;28;20021;-76
2022/04/22 10:25:39;;;;;;;0.10;0.10;;;;;;;;;;5069982;28;20032;-78
2022/04/22 10:28:07;;;;;;;0.10;0.10;;;;;;;;;;5071234;28;20025;-77
2022/04/22 10:30:33;;;;;;;0.10;0.10;;;;;;;;;;5069880;28;20471;-78
2022/04/22 10:33:00;;;;;;;0.10;0.10;;;;;;;;;;5070597;28;20032;-77
2022/04/22 10:35:26;;;;;;;0.10;0.10;;;;;;;;;;5071479;28;20407;-77
2022/04/22 10:37:52;;;;;;;0.10;0.10;;;;;;;;;;5071120;28;20032;-77
2022/04/22 10:40:18;;;;;;;0.10;0.10;;;;;;;;;;5070740;28;20055;-77
2022/04/22 10:42:44;;;;;;;36.30;32.70;;;;;;;;;;5070213;28;20487;-76
2022/04/22 10:47:55;;;;;;;0.10;0.10;;;;;;;;;;5068488;28;20039;-77
2022/04/22 10:50:30;;;;;;;0.10;0.10;;;;;;;;;;5070883;28;20032;-78
2022/04/22 10:53:17;;;;;;;0.10;0.10;;;;;;;;;;5066638;28;20037;-75
2022/04/22 10:55:43;;;;;;;0.10;0.10;;;;;;;;;;5068115;28;20474;-76
2022/04/22 10:58:11;;;;;;;0.10;0.10;;;;;;;;;;5070137;28;20032;-77
2022/04/22 11:00:39;;;;;;;0.10;0.10;;;;;;;;;;5069553;28;20043;-78
2022/04/22 11:03:10;;;;;;;0.00;0.00;;;;;;;;;;5069506;28;20028;-78
2022/04/22 11:05:37;;;;;;;0.10;0.10;;;;;;;;;;5068025;28;20557;-77
2022/04/22 11:08:07;;;;;;;0.10;0.10;;;;;;;;;;5068633;28;20024;-76
2022/04/22 11:10:49;;;;;;;0.10;0.10;;;;;;;;;;5069561;28;20028;-77
2022/04/22 11:13:29;;;;;;;0.50;0.50;;;;;;;;;;5067826;28;20029;-78
2022/04/22 11:15:58;;;;;;;0.10;0.10;;;;;;;;;;5068915;28;20032;-78
2022/04/22 11:18:25;;;;;;;0.20;0.20;;;;;;;;;;5066538;28;20029;-78
2022/04/22 11:20:52;;;;;;;0.05;0.05;;;;;;;;;;5070654;28;20039;-77
2022/04/22 11:23:18;;;;;;;0.10;0.10;;;;;;;;;;5072534;28;20021;-78
2022/04/22 11:25:46;;;;;;;0.10;0.10;;;;;;;;;;5070313;28;20024;-77
2022/04/22 11:28:13;;;;;;;0.10;0.10;;;;;;;;;;5069148;28;20028;-76
2022/04/22 11:30:40;;;;;;;0.00;0.00;;;;;;;;;;5067747;28;20073;-77
2022/04/22 11:33:33;;;;;;;0.10;0.10;;;;;;;;;;5069258;28;20383;-77
2022/04/22 11:36:04;;;;;;;0.10;0.10;;;;;;;;;;5066042;28;20037;-76
2022/04/22 11:38:31;;;;;;;0.10;0.10;;;;;;;;;;5069597;28;20567;-75
2022/04/22 11:40:57;;;;;;;0.10;0.10;;;;;;;;;;5067658;28;20035;-77
2022/04/22 11:43:23;;;;;;;0.10;0.10;;;;;;;;;;5072316;28;20033;-76
2022/04/22 11:45:50;;;;;;;0.10;0.10;;;;;;;;;;5072407;28;20081;-77
2022/04/22 11:48:20;;;;;;;0.10;0.10;;;;;;;;;;5073790;28;20171;-76
2022/04/22 11:50:46;;;;;;;0.10;0.10;;;;;;;;;;5074047;28;20024;-76
2022/04/22 11:53:20;;;;;;;0.10;0.10;;;;;;;;;;5074471;28;20078;-77
2022/04/22 11:55:47;;;;;;;0.10;0.10;;;;;;;;;;5071731;28;20031;-77
2022/04/22 11:58:13;;;;;;;0.10;0.10;;;;;;;;;;5072868;28;20433;-77
2022/04/22 12:06:13;;;;;;;0.10;0.10;;;;;;;;;;5074487;28;20044;-76
2022/04/22 12:08:52;;;;;;;0.10;0.10;;;;;;;;;;5074075;28;20027;-76
2022/04/22 12:11:18;;;;;;;0.10;0.10;;;;;;;;;;5073940;28;20032;-78
2022/04/22 12:13:45;;;;;;;0.10;0.10;;;;;;;;;;5073468;28;20496;-76
2022/04/22 12:16:11;;;;;;;0.10;0.10;;;;;;;;;;5071928;28;20021;-76
2022/04/22 12:18:39;;;;;;;0.10;0.10;;;;;;;;;;5073515;28;20027;-77
2022/04/22 12:21:06;;;;;;;0.10;0.10;;;;;;;;;;5072264;28;20389;-76
2022/04/22 12:23:39;;;;;;;0.10;0.10;;;;;;;;;;5072797;28;20027;-77
2022/04/22 12:26:06;;;;;;;0.10;0.10;;;;;;;;;;5072066;28;20377;-76
2022/04/22 12:28:32;;;;;;;0.20;0.20;;;;;;;;;;5074122;28;20028;-77
2022/04/22 12:30:58;;;;;;;0.10;0.10;;;;;;;;;;5073747;28;20025;-76
2022/04/22 12:33:25;;;;;;;0.10;0.10;;;;;;;;;;5072430;28;20462;-76
2022/04/22 12:36:07;;;;;;;0.10;0.10;;;;;;;;;;5073485;28;20024;-77
2022/04/22 12:38:35;;;;;;;0.10;0.10;;;;;;;;;;5073426;28;20036;-76
2022/04/22 12:41:01;;;;;;;0.10;0.10;;;;;;;;;;5073897;28;20025;-76
2022/04/22 12:43:28;;;;;;;0.10;0.10;;;;;;;;;;5072213;28;20033;-77
2022/04/22 12:54:33;;;;;;;0.10;0.10;;;;;;;;;;5073003;28;20036;-77
2022/04/22 12:56:59;;;;;;;0.10;0.10;;;;;;;;;;5072300;28;20020;-77
2022/04/22 12:59:39;;;;;;;0.00;0.00;;;;;;;;;;5073126;28;20041;-77
2022/04/22 13:02:09;;;;;;;0.10;0.10;;;;;;;;;;5071658;28;20020;-76
2022/04/22 13:04:48;;;;;;;0.10;0.10;;;;;;;;;;5072982;28;20028;-76
2022/04/22 13:07:15;;;;;;;0.10;0.10;;;;;;;;;;5071807;28;20025;-77
2022/04/22 13:09:40;;;;;;;0.10;0.10;;;;;;;;;;5071604;28;20499;-76
2022/04/22 13:12:07;;;;;;;0.10;0.10;;;;;;;;;;5072988;28;20048;-76
2022/04/22 13:14:33;;;;;;;0.10;0.10;;;;;;;;;;5072741;28;20036;-76
2022/04/22 13:17:01;;;;;;;0.10;0.10;;;;;;;;;;5073260;28;20481;-77
2022/04/22 13:19:27;;;;;;;0.10;0.10;;;;;;;;;;5071415;28;20031;-77
2022/04/22 13:21:53;;;;;;;0.10;0.10;;;;;;;;;;5072725;28;20442;-78
2022/04/22 13:24:19;;;;;;;0.10;0.10;;;;;;;;;;5072659;28;20104;-77
2022/04/22 13:26:45;;;;;;;0.10;0.10;;;;;;;;;;5071869;28;20111;-77
2022/04/22 13:29:11;;;;;;;0.10;0.10;;;;;;;;;;5072622;28;20029;-77
2022/04/22 13:31:37;;;;;;;0.10;0.10;;;;;;;;;;5072406;28;20388;-77
2022/04/22 13:34:03;;;;;;;0.10;0.10;;;;;;;;;;5071382;28;20028;-77
2022/04/22 13:36:35;;;;;;;0.10;0.10;;;;;;;;;;5072977;28;20027;-78
2022/04/22 13:39:01;;;;;;;0.10;0.10;;;;;;;;;;5072570;28;20025;-77
2022/04/22 13:41:27;;;;;;;0.10;0.10;;;;;;;;;;5076666;28;20032;-78
2022/04/22 13:43:53;;;;;;;0.10;0.10;;;;;;;;;;5086264;28;20378;-78
2022/04/22 13:52:21;;;;;;;0.10;0.10;;;;;;;;;;5074880;28;20105;-76
2022/04/22 13:54:46;;;;;;;0.10;0.10;;;;;;;;;;5079082;28;20039;-76
2022/04/22 13:57:12;;;;;;;0.10;0.10;;;;;;;;;;5071510;28;20028;-76
2022/04/22 13:59:38;;;;;;;0.10;0.10;;;;;;;;;;5071705;28;20086;-76
2022/04/22 14:02:04;;;;;;;0.10;0.10;;;;;;;;;;5073190;28;20036;-76
2022/04/22 14:04:32;;;;;;;0.10;0.10;;;;;;;;;;5091006;28;20028;-77
2022/04/22 14:06:58;;;;;;;0.10;0.10;;;;;;;;;;5089613;28;20024;-77
2022/04/22 14:09:24;;;;;;;0.10;0.10;;;;;;;;;;5091916;28;20056;-77
2022/04/22 14:11:50;;;;;;;0.30;0.30;;;;;;;;;;5090304;28;20519;-77
2022/04/22 14:14:16;;;;;;;0.10;0.10;;;;;;;;;;5072352;28;20108;-75
2022/04/22 14:16:42;;;;;;;0.10;0.10;;;;;;;;;;5069865;28;20112;-76
2022/04/22 14:19:09;;;;;;;0.10;0.10;;;;;;;;;;5071595;28;20032;-78
2022/04/22 14:21:35;;;;;;;0.10;0.10;;;;;;;;;;5083922;28;20527;-78
2022/04/22 14:24:01;;;;;;;0.10;0.10;;;;;;;;;;5072172;28;20048;-78
2022/04/22 14:26:28;;;;;;;0.10;0.10;;;;;;;;;;5070164;28;20086;-78
2022/04/22 14:28:54;;;;;;;0.10;0.10;;;;;;;;;;5081486;28;20056;-77
2022/04/22 14:31:20;;;;;;;0.10;0.10;;;;;;;;;;5065185;28;20093;-77
2022/04/22 14:33:46;;;;;;;0.10;0.10;;;;;;;;;;5086092;28;20020;-78
2022/04/22 14:36:13;;;;;;;0.10;0.10;;;;;;;;;;5088332;28;20031;-79
2022/04/22 14:38:39;;;;;;;0.10;0.10;;;;;;;;;;5071138;28;20020;-78
2022/04/22 14:41:05;;;;;;;0.10;0.10;;;;;;;;;;5071396;28;20036;-79
2022/04/22 14:43:32;;;;;;;0.10;0.10;;;;;;;;;;5070043;28;20055;-78
2022/04/22 14:45:59;;;;;;;0.10;0.10;;;;;;;;;;5071632;28;20024;-79
2022/04/22 14:48:26;;;;;;;0.10;0.10;;;;;;;;;;5074275;28;20024;-78
2022/04/22 14:50:52;;;;;;;0.10;0.10;;;;;;;;;;5089962;28;20092;-79
2022/04/22 14:53:18;;;;;;;0.10;0.10;;;;;;;;;;5089949;28;20039;-80
2022/04/22 14:55:44;;;;;;;0.10;0.10;;;;;;;;;;5090966;28;20024;-79
2022/04/22 14:58:10;;;;;;;0.10;0.10;;;;;;;;;;5091255;28;20062;-77
2022/04/22 15:00:36;;;;;;;0.10;0.10;;;;;;;;;;5090955;28;20059;-76
2022/04/22 15:03:02;;;;;;;0.10;0.10;;;;;;;;;;5091530;28;20020;-76
2022/04/22 15:05:29;;;;;;;0.10;0.10;;;;;;;;;;5090212;28;20492;-76
2022/04/22 15:07:56;;;;;;;0.10;0.10;;;;;;;;;;5089661;28;20028;-77
2022/04/22 15:10:22;;;;;;;0.10;0.10;;;;;;;;;;5091190;28;20027;-76
2022/04/22 15:12:50;;;;;;;0.10;0.10;;;;;;;;;;5089559;28;20537;-76
2022/04/22 15:15:16;;;;;;;0.10;0.10;;;;;;;;;;5089943;28;20028;-77
2022/04/22 15:25:56;;;;;;;0.10;0.10;;;;;;;;;;5089163;28;20042;-77
2022/04/22 15:28:23;;;;;;;0.10;0.10;;;;;;;;;;5088961;28;20024;-77
2022/04/22 15:31:14;;;;;;;0.10;0.10;;;;;;;;;;5094709;28;20099;-77
2022/04/22 15:33:46;;;;;;;0.10;0.10;;;;;;;;;;5094823;28;20460;-77
2022/04/22 15:36:13;;;;;;;0.10;0.10;;;;;;;;;;5095229;28;20091;-77
2022/04/22 15:38:44;;;;;;;0.10;0.10;;;;;;;;;;5091686;28;20507;-76
2022/04/22 15:41:11;;;;;;;0.10;0.10;;;;;;;;;;5093314;28;20067;-77
2022/04/22 15:43:39;;;;;;;0.10;0.10;;;;;;;;;;5081168;28;20020;-76
2022/04/22 15:46:05;;;;;;;0.10;0.10;;;;;;;;;;5093768;28;20035;-77
2022/04/22 15:48:33;;;;;;;0.10;0.10;;;;;;;;;;5089023;28;20029;-76
2022/04/22 15:51:00;;;;;;;0.10;0.10;;;;;;;;;;5074881;28;20104;-77
2022/04/22 15:53:26;;;;;;;0.10;0.10;;;;;;;;;;5073309;28;20511;-75
2022/04/22 15:55:52;;;;;;;0.10;0.10;;;;;;;;;;5091171;28;20028;-76
2022/04/22 15:58:18;;;;;;;0.10;0.10;;;;;;;;;;5093888;28;20030;-76